Latest Coastal Weather Observations for Gannett Cay

IDQ60701

Issued at 12:15 am EST Wednesday 3 September 2014 (issued every 10 minutes, with the page automatically refreshed every 10 minutes)

About coastal observations | Map of coastal stations | Coastal observations for QLD | Marine services | Other Formats
Station Details ID: 200831 Name: GANNET CAY Lat: -21.98 Lon: 152.47 Height: 2.3 m
Data from the previous 72 hours. | See also: Recent months for locations in Queensland
Date/Time
EST
Temp

°C
Wind Pressure Rain
since 9am
mm
Weather Cloud Vis
km
Sea
Height
m
Swell
Dir
 
Speed
knots
Gust
knots
hPa Trend Height
m
Period
s
Dir
03/12:00am 21.7 NNW 19 21 1013.1 - - - - - - - - -
 
Date/Time
EST
Temp

°C
Wind Pressure Rain
since 9am
mm
Weather Cloud Vis
km
Sea
Height
m
Swell
Dir
 
Speed
knots
Gust
knots
hPa Trend Height
m
Period
s
Dir
02/11:30pm 21.7 N 17 20 1012.7 - - - - - - - - -
02/11:26pm 21.7 NNW 18 - 1012.7 - - - - - - - - -
02/11:00pm 21.6 N 17 20 1012.8 - - - - - - - - -
02/10:30pm 21.6 N 18 20 1012.7 - - - - - - - - -
02/10:26pm 21.6 N 18 - 1012.8 - - - - - - - - -
02/10:00pm 21.6 NNW 17 20 1013.0 - - - - - - - - -
02/09:30pm 21.5 NNW 16 18 1013.4 - - - - - - - - -
02/09:26pm 21.4 NNW 16 - 1013.5 - - - - - - - - -
02/09:00pm 21.6 NNW 16 19 1013.8 - - - - - - - - -
02/08:30pm 21.4 NNW 15 18 1013.9 - - - - - - - - -
02/08:26pm 21.5 NNW 15 - 1014.0 - - - - - - - - -
02/08:00pm 21.4 NW 15 18 1014.3 - - - - - - - - -
02/07:30pm 21.3 NW 15 17 1014.1 - - - - - - - - -
02/07:26pm 21.6 NW 15 - 1014.1 - - - - - - - - -
02/07:00pm 21.2 NW 15 17 1013.7 - - - - - - - - -
02/06:30pm 21.2 NW 14 17 1013.2 - - - - - - - - -
02/06:26pm 21.2 NW 14 - 1013.2 - - - - - - - - -
02/06:00pm 21.2 NW 12 15 1013.0 - - - - - - - - -
02/05:30pm 21.2 NW 12 14 1013.1 - - - - - - - - -
02/05:26pm 21.3 NW 12 - 1013.1 - - - - - - - - -
02/05:00pm 21.5 WNW 11 15 1013.0 - - - - - - - - -
02/04:30pm 21.5 WNW 12 14 1013.0 - - - - - - - - -
02/04:26pm 21.5 WNW 12 - 1013.1 - - - - - - - - -
02/04:00pm 22.0 WNW 11 14 1013.0 - - - - - - - - -
02/03:30pm 21.7 WNW 11 13 1012.9 - - - - - - - - -
02/03:26pm 21.7 WNW 11 - 1013.0 - - - - - - - - -
02/03:00pm 21.8 NW 10 12 1012.8 - - - - - - - - -
02/02:30pm 21.7 NW 10 11 1013.3 - - - - - - - - -
02/02:26pm 21.8 NW 10 - 1013.4 - - - - - - - - -
02/02:00pm 21.8 NW 10 12 1013.7 - - - - - - - - -
02/01:30pm 21.9 NW 10 12 1013.9 - - - - - - - - -
02/01:26pm 21.7 NW 10 - 1014.1 - - - - - - - - -
02/01:00pm 21.7 NW 10 11 1014.5 - - - - - - - - -
02/12:30pm 21.8 NW 10 11 1014.8 - - - - - - - - -
02/12:26pm 21.8 NW 9 - 1015.0 - - - - - - - - -
02/12:00pm 21.8 NW 8 10 1015.3 - - - - - - - - -
02/11:30am 21.8 NNW 8 11 1015.9 - - - - - - - - -
02/11:26am 21.7 NNW 8 - 1016.0 - - - - - - - - -
02/11:00am 21.6 NNW 7 8 1016.2 - - - - - - - - -
02/10:30am 21.8 N 7 8 1016.5 - - - - - - - - -
02/10:26am 21.8 N 7 - 1016.6 - - - - - - - - -
02/10:00am 21.8 NNW 6 7 1016.8 - - - - - - - - -
02/09:30am 21.7 NNW 5 6 1017.1 - - - - - - - - -
02/09:26am 21.7 NNW 5 - 1017.3 - - - - - - - - -
02/09:00am 21.8 NNW 5 6 1017.3 - - - - - - - - -
02/08:30am 21.9 N 3 4 1017.5 - - - - - - - - -
02/08:26am 21.9 N 3 - 1017.6 - - - - - - - - -
02/08:00am 22.0 CALM 0 0 1017.2 - - - - - - - - -
02/07:30am 22.0 CALM 0 0 1017.1 - - - - - - - - -
02/07:26am 22.0 CALM 0 - 1017.2 - - - - - - - - -
02/07:00am 22.0 CALM 0 0 1017.0 - - - - - - - - -
02/06:30am 21.4 CALM 0 0 1016.8 - - - - - - - - -
02/06:26am 21.2 CALM 0 - 1016.9 - - - - - - - - -
02/06:00am 21.1 CALM 0 0 1016.7 - - - - - - - - -
02/05:26am 21.2 CALM 0 - 1016.6 - - - - - - - - -
02/05:00am 21.3 CALM 0 0 1016.4 - - - - - - - - -
02/04:26am 21.3 CALM 0 - 1016.5 - - - - - - - - -
02/04:00am 21.2 CALM 0 0 1016.3 - - - - - - - - -
02/03:30am 21.3 NE 3 4 1016.1 - - - - - - - - -
02/03:26am 21.4 NE 3 - 1016.3 - - - - - - - - -
02/02:30am 21.5 NE 5 5 1016.7 - - - - - - - - -
02/02:26am 21.5 NE 5 - 1016.7 - - - - - - - - -
02/02:00am 21.7 ENE 5 6 1016.6 - - - - - - - - -
02/01:30am 21.7 ENE 7 8 1016.7 - - - - - - - - -
02/01:26am 21.7 ENE 7 - 1016.9 - - - - - - - - -
02/01:00am 21.7 E 7 9 1016.9 - - - - - - - - -
02/12:26am 21.7 E 8 - 1017.1 - - - - - - - - -
 
Date/Time
EST
Temp

°C
Wind Pressure Rain
since 9am
mm
Weather Cloud Vis
km
Sea
Height
m
Swell
Dir
 
Speed
knots
Gust
knots
hPa Trend Height
m
Period
s
Dir
01/11:30pm 21.8 E 9 10 1017.4 - - - - - - - - -
01/11:26pm 21.8 E 9 - 1017.6 - - - - - - - - -
01/11:00pm 21.8 E 9 11 1017.6 - - - - - - - - -
01/10:30pm 21.8 E 9 10 1017.6 - - - - - - - - -
01/10:26pm 21.8 E 9 - 1017.7 - - - - - - - - -
01/10:00pm 21.8 E 10 11 1017.5 - - - - - - - - -
01/09:30pm 21.9 E 10 12 1017.7 - - - - - - - - -
01/09:26pm 21.9 E 10 - 1017.8 - - - - - - - - -
01/09:00pm 21.9 E 8 10 1018.3 - - - - - - - - -
01/08:30pm 21.9 E 9 10 1018.1 - - - - - - - - -
01/08:26pm 21.9 E 9 - 1018.1 - - - - - - - - -
01/08:00pm 21.9 E 11 13 1017.7 - - - - - - - - -
01/07:30pm 21.9 E 11 13 1017.5 - - - - - - - - -
01/07:26pm 21.9 E 11 - 1017.6 - - - - - - - - -
01/07:00pm 22.0 E 10 11 1017.4 - - - - - - - - -
01/06:30pm 21.9 E 10 11 1017.1 - - - - - - - - -
01/06:26pm 22.0 E 9 - 1017.2 - - - - - - - - -
01/06:00pm 22.0 E 9 10 1016.9 - - - - - - - - -
01/05:30pm 22.0 E 7 9 1016.8 - - - - - - - - -
01/05:26pm 22.0 E 7 - 1016.9 - - - - - - - - -
01/05:00pm 22.4 E 8 9 1016.6 - - - - - - - - -
01/04:30pm 22.5 E 8 10 1016.6 - - - - - - - - -
01/04:26pm 22.5 E 8 - 1016.6 - - - - - - - - -
01/04:00pm 23.0 ESE 7 8 1016.5 - - - - - - - - -
01/03:30pm 22.8 E 8 9 1016.0 - - - - - - - - -
01/03:26pm 22.8 E 8 - 1016.2 - - - - - - - - -
01/03:00pm 22.7 E 8 11 1016.2 - - - - - - - - -
01/02:30pm 23.0 E 6 8 1016.5 - - - - - - - - -
01/02:26pm 22.8 E 6 - 1016.6 - - - - - - - - -
01/02:00pm 23.5 E 6 7 1016.8 - - - - - - - - -
01/01:30pm 23.6 E 7 9 1017.0 - - - - - - - - -
01/01:26pm 23.2 E 7 - 1017.2 - - - - - - - - -
01/01:00pm 22.2 ENE 9 11 1016.9 - - - - - - - - -
01/12:30pm 21.8 NE 10 12 1017.0 - - - - - - - - -
01/12:26pm 21.9 NE 10 - 1017.2 - - - - - - - - -
01/12:00pm 22.8 NNE 1 3 1017.7 - - - - - - - - -
01/11:30am 22.0 NNE 3 4 1018.5 - - - - - - - - -
01/11:26am 22.0 N 4 - 1018.4 - - - - - - - - -
01/11:00am 21.5 N 5 5 1018.7 - - - - - - - - -
01/10:30am 21.7 NNE 6 7 1019.0 - - - - - - - - -
01/10:26am 21.7 NNE 6 - 1019.1 - - - - - - - - -
01/10:00am 21.2 NNE 9 10 1019.1 - - - - - - - - -
01/09:30am 22.0 E 11 13 1019.1 - - - - - - - - -
01/09:26am 22.0 E 12 - 1019.2 - - - - - - - - -
01/09:00am 21.4 E 13 15 1018.9 - - - - - - - - -
01/08:30am 21.7 E 15 17 1018.5 - - - - - - - - -
01/08:26am 21.7 E 15 - 1018.6 - - - - - - - - -
01/08:00am 21.3 ESE 16 17 1018.4 - - - - - - - - -
01/07:30am 20.9 SE 14 19 1018.4 - - - - - - - - -
01/07:26am 21.2 SE 12 - 1018.5 - - - - - - - - -
01/07:00am 20.9 SE 11 13 1018.0 - - - - - - - - -
01/06:30am 20.9 SSE 11 13 1017.9 - - - - - - - - -
01/06:26am 20.8 SSE 11 - 1018.0 - - - - - - - - -
01/06:00am 20.6 SE 12 14 1017.8 - - - - - - - - -
01/05:30am 20.6 SE 12 14 1017.5 - - - - - - - - -
01/05:26am 20.6 SE 12 - 1017.5 - - - - - - - - -
01/05:00am 20.6 SE 12 14 1017.0 - - - - - - - - -
01/04:30am 20.6 SSE 12 14 1016.8 - - - - - - - - -
01/04:26am 20.6 SE 12 - 1016.9 - - - - - - - - -
01/04:00am 20.7 SE 13 16 1016.8 - - - - - - - - -
01/03:30am 20.8 SSE 13 16 1016.6 - - - - - - - - -
01/03:26am 20.8 SSE 12 - 1016.7 - - - - - - - - -
01/03:00am 20.7 SSE 10 12 1016.6 - - - - - - - - -
01/02:30am 20.7 SE 10 11 1016.6 - - - - - - - - -
01/02:26am 20.6 SE 10 - 1016.7 - - - - - - - - -
01/02:00am 20.7 SSE 10 11 1016.8 - - - - - - - - -
01/01:30am 20.8 SE 8 10 1017.0 - - - - - - - - -
01/01:26am 20.7 SE 8 - 1017.1 - - - - - - - - -
01/01:00am 20.8 SE 8 10 1017.1 - - - - - - - - -
01/12:30am 20.8 ESE 8 9 1017.3 - - - - - - - - -
01/12:26am 20.8 SE 8 - 1017.5 - - - - - - - - -
01/12:00am 20.9 SE 8 10 1017.7 - - - - - - - - -
 
Date/Time
EST
Temp

°C
Wind Pressure Rain
since 9am
mm
Weather Cloud Vis
km
Sea
Height
m
Swell
Dir
 
Speed
knots
Gust
knots
hPa Trend Height
m
Period
s
Dir
31/11:30pm 21.0 ESE 8 9 1017.8 - - - - - - - - -
31/11:26pm 20.9 SE 8 - 1018.0 - - - - - - - - -
31/11:00pm 21.0 ESE 9 11 1017.8 - - - - - - - - -
31/10:30pm 20.9 ESE 8 11 1018.0 - - - - - - - - -
31/10:26pm 20.9 SE 8 - 1018.0 - - - - - - - - -
31/10:00pm 20.8 SE 8 10 1018.0 - - - - - - - - -
31/09:30pm 20.8 SE 8 11 1017.9 - - - - - - - - -
31/09:26pm 20.8 SE 9 - 1018.0 - - - - - - - - -
31/09:00pm 20.9 ESE 10 12 1018.0 - - - - - - - - -
31/08:30pm 20.9 E 9 11 1017.9 - - - - - - - - -
31/08:26pm 20.9 ESE 9 - 1018.0 - - - - - - - - -
31/08:00pm 20.6 SSE 8 10 1017.8 - - - - - - - - -
31/07:30pm 20.6 SE 9 12 1017.6 - - - - - - - - -
31/07:26pm 20.6 SE 9 - 1017.7 - - - - - - - - -
31/07:00pm 20.6 SE 10 13 1017.3 - - - - - - - - -
31/06:30pm 20.6 SE 9 12 1017.0 - - - - - - - - -
31/06:26pm 20.6 SE 9 - 1017.1 - - - - - - - - -
31/06:00pm 20.6 SE 9 11 1016.8 - - - - - - - - -
31/05:30pm 20.9 SE 8 11 1016.5 - - - - - - - - -
31/05:26pm 20.9 SE 8 - 1016.6 - - - - - - - - -
31/05:00pm 21.4 SE 8 11 1016.3 - - - - - - - - -
31/04:30pm 21.3 SSE 9 11 1015.9 - - - - - - - - -
31/04:26pm 21.6 SSE 9 - 1016.0 - - - - - - - - -
31/04:00pm 21.4 SSE 8 11 1015.8 - - - - - - - - -
31/03:30pm 21.2 SSE 9 11 1015.7 - - - - - - - - -
31/03:26pm 21.2 SSE 9 - 1015.8 - - - - - - - - -
31/03:00pm 20.9 S 9 11 1015.8 - - - - - - - - -
31/02:30pm 21.2 S 9 11 1016.0 - - - - - - - - -
31/02:26pm 21.1 S 9 - 1016.1 - - - - - - - - -
31/02:00pm 20.9 S 9 11 1016.1 - - - - - - - - -
31/01:30pm 21.0 S 9 11 1016.4 - - - - - - - - -
31/01:26pm 21.2 SSE 9 - 1016.5 - - - - - - - - -
31/01:00pm 20.9 S 9 12 1016.9 - - - - - - - - -
31/12:30pm 20.8 S 9 11 1017.2 - - - - - - - - -
31/12:26pm 20.9 S 9 - 1017.4 - - - - - - - - -
31/12:00pm 20.8 S 8 11 1017.6 - - - - - - - - -
31/11:30am 20.9 S 8 10 1017.9 - - - - - - - - -
31/11:26am 20.9 S 9 - 1018.0 - - - - - - - - -
31/11:00am 21.1 SSE 8 11 1018.2 - - - - - - - - -
31/10:30am 20.8 S 8 9 1018.5 - - - - - - - - -
31/10:26am 20.8 SSE 8 - 1018.6 - - - - - - - - -
31/10:00am 21.0 SSE 8 10 1018.8 - - - - - - - - -
31/09:30am 20.8 S 9 11 1018.9 - - - - - - - - -
31/09:26am 20.8 S 9 - 1019.0 - - - - - - - - -
31/09:00am 20.7 SSE 9 11 1018.8 - - - - - - - - -
31/08:30am 21.2 SSE 8 10 1018.7 - - - - - - - - -
31/08:26am 21.4 SSE 8 - 1018.8 - - - - - - - - -
31/08:00am 21.2 SSE 8 11 1018.4 - - - - - - - - -
31/07:30am 21.2 SSE 10 11 1018.2 - - - - - - - - -
31/07:26am 21.1 SSE 9 - 1018.2 - - - - - - - - -
31/07:00am 21.1 SE 9 12 1017.9 - - - - - - - - -
31/06:30am 20.7 SE 8 10 1017.5 - - - - - - - - -
31/06:26am 20.6 SE 9 - 1017.5 - - - - - - - - -
31/06:00am 20.4 SE 9 11 1017.1 - - - - - - - - -
31/05:30am 20.4 SE 7 9 1016.8 - - - - - - - - -
31/05:26am 20.4 SE 7 - 1016.9 - - - - - - - - -
31/05:00am 20.3 SE 6 8 1016.5 - - - - - - - - -
31/04:30am 20.3 ESE 6 8 1016.3 - - - - - - - - -
31/04:26am 20.3 ESE 7 - 1016.4 - - - - - - - - -
31/04:00am 20.3 ESE 5 7 1016.2 - - - - - - - - -
31/03:30am 20.5 E 5 6 1016.1 - - - - - - - - -
31/03:26am 20.4 E 5 - 1016.2 - - - - - - - - -
31/03:00am 20.6 ENE 7 8 1016.3 - - - - - - - - -
31/02:30am 20.5 ENE 6 7 1016.4 - - - - - - - - -
31/02:26am 20.7 ENE 6 - 1016.6 - - - - - - - - -
31/02:00am 20.4 ENE 6 8 1016.7 - - - - - - - - -
31/01:30am 20.5 ENE 6 8 1017.1 - - - - - - - - -
31/01:26am 20.5 E 7 - 1017.3 - - - - - - - - -
31/01:00am 20.6 ENE 7 9 1017.4 - - - - - - - - -
31/12:30am 20.7 ENE 6 7 1017.8 - - - - - - - - -
31/12:26am 20.6 NE 6 - 1017.9 - - - - - - - - -

Other Formats:

Comma delimited format used in spreadsheet applications
http://www.bom.gov.au/fwo/IDQ60701/IDQ60701.94379.axf

JavaScript Object Notation format (JSON) in row-major order
http://www.bom.gov.au/fwo/IDQ60701/IDQ60701.94379.json